sensor_id;sensor_type;location;lat;lon;timestamp;pressure;altitude;pressure_sealevel;temperature;humidity
60974;BME280;46846;51.528;5.076;2023-08-20T00:01:26;101514.47;;;21.93;59.42
60974;BME280;46846;51.528;5.076;2023-08-20T00:03:53;101506.44;;;21.92;59.68
60974;BME280;46846;51.528;5.076;2023-08-20T00:06:20;101497.56;;;21.90;59.57
60974;BME280;46846;51.528;5.076;2023-08-20T00:08:46;101505.91;;;21.87;59.61
60974;BME280;46846;51.528;5.076;2023-08-20T00:11:12;101505.03;;;21.86;59.55
60974;BME280;46846;51.528;5.076;2023-08-20T00:13:39;101502.53;;;21.83;59.51
60974;BME280;46846;51.528;5.076;2023-08-20T00:16:04;101503.53;;;21.82;59.68
60974;BME280;46846;51.528;5.076;2023-08-20T00:18:31;101504.59;;;21.79;59.58
60974;BME280;46846;51.528;5.076;2023-08-20T00:20:57;101513.81;;;21.77;59.77
60974;BME280;46846;51.528;5.076;2023-08-20T00:23:23;101515.78;;;21.75;59.74
60974;BME280;46846;51.528;5.076;2023-08-20T00:25:49;101524.00;;;21.73;59.51
60974;BME280;46846;51.528;5.076;2023-08-20T00:28:14;101528.66;;;21.71;59.61
60974;BME280;46846;51.528;5.076;2023-08-20T00:30:39;101532.47;;;21.68;59.61
60974;BME280;46846;51.528;5.076;2023-08-20T00:33:05;101532.53;;;21.67;59.67
60974;BME280;46846;51.528;5.076;2023-08-20T00:35:30;101540.00;;;21.63;59.58
60974;BME280;46846;51.528;5.076;2023-08-20T00:37:56;101540.00;;;21.63;59.64
60974;BME280;46846;51.528;5.076;2023-08-20T00:40:21;101546.63;;;21.59;59.77
60974;BME280;46846;51.528;5.076;2023-08-20T00:42:47;101550.31;;;21.58;59.62
60974;BME280;46846;51.528;5.076;2023-08-20T00:45:12;101558.44;;;21.58;59.79
60974;BME280;46846;51.528;5.076;2023-08-20T00:47:38;101558.53;;;21.56;59.75
60974;BME280;46846;51.528;5.076;2023-08-20T00:50:04;101558.63;;;21.55;59.67
60974;BME280;46846;51.528;5.076;2023-08-20T00:52:34;101568.59;;;21.54;59.80
60974;BME280;46846;51.528;5.076;2023-08-20T00:55:00;101568.72;;;21.53;59.59
60974;BME280;46846;51.528;5.076;2023-08-20T00:57:27;101572.38;;;21.52;59.71
60974;BME280;46846;51.528;5.076;2023-08-20T00:59:54;101577.06;;;21.50;59.66
60974;BME280;46846;51.528;5.076;2023-08-20T01:02:20;101587.88;;;21.50;59.60
60974;BME280;46846;51.528;5.076;2023-08-20T01:04:47;101578.03;;;21.49;59.55
60974;BME280;46846;51.528;5.076;2023-08-20T01:12:28;101584.84;;;21.41;59.63
60974;BME280;46846;51.528;5.076;2023-08-20T01:14:54;101579.53;;;21.40;59.73
60974;BME280;46846;51.528;5.076;2023-08-20T01:17:19;101582.22;;;21.40;59.53
60974;BME280;46846;51.528;5.076;2023-08-20T01:19:45;101586.91;;;21.38;59.71
60974;BME280;46846;51.528;5.076;2023-08-20T01:30:00;101575.69;;;21.29;59.80
60974;BME280;46846;51.528;5.076;2023-08-20T01:32:26;101576.81;;;21.27;59.81
60974;BME280;46846;51.528;5.076;2023-08-20T01:34:52;101578.72;;;21.25;59.84
60974;BME280;46846;51.528;5.076;2023-08-20T01:37:19;101585.13;;;21.24;59.86
60974;BME280;46846;51.528;5.076;2023-08-20T01:39:44;101584.34;;;21.22;59.80
60974;BME280;46846;51.528;5.076;2023-08-20T01:42:10;101586.31;;;21.20;59.83
60974;BME280;46846;51.528;5.076;2023-08-20T01:44:35;101589.13;;;21.18;59.79
60974;BME280;46846;51.528;5.076;2023-08-20T01:47:00;101588.22;;;21.17;59.85
60974;BME280;46846;51.528;5.076;2023-08-20T01:49:26;101585.75;;;21.14;59.99
60974;BME280;46846;51.528;5.076;2023-08-20T01:51:51;101585.84;;;21.13;59.85
60974;BME280;46846;51.528;5.076;2023-08-20T01:54:16;101591.38;;;21.11;59.69
60974;BME280;46846;51.528;5.076;2023-08-20T01:56:42;101585.09;;;21.11;59.93
60974;BME280;46846;51.528;5.076;2023-08-20T01:59:07;101586.16;;;21.08;59.96
60974;BME280;46846;51.528;5.076;2023-08-20T02:01:33;101596.22;;;21.06;59.97
60974;BME280;46846;51.528;5.076;2023-08-20T02:03:58;101596.22;;;21.06;60.01
60974;BME280;46846;51.528;5.076;2023-08-20T02:06:23;101596.41;;;21.03;59.99
60974;BME280;46846;51.528;5.076;2023-08-20T02:08:49;101598.34;;;21.01;59.93
60974;BME280;46846;51.528;5.076;2023-08-20T02:11:14;101602.03;;;21.00;60.17
60974;BME280;46846;51.528;5.076;2023-08-20T02:13:39;101598.66;;;20.96;60.18
60974;BME280;46846;51.528;5.076;2023-08-20T02:16:05;101597.03;;;20.94;60.25
60974;BME280;46846;51.528;5.076;2023-08-20T02:18:32;101607.00;;;20.93;60.06
60974;BME280;46846;51.528;5.076;2023-08-20T02:20:57;101598.09;;;20.91;60.08
60974;BME280;46846;51.528;5.076;2023-08-20T02:23:23;101616.28;;;20.89;60.22
60974;BME280;46846;51.528;5.076;2023-08-20T02:25:49;101610.09;;;20.87;60.20
60974;BME280;46846;51.528;5.076;2023-08-20T02:28:14;101610.19;;;20.85;60.31
60974;BME280;46846;51.528;5.076;2023-08-20T02:30:44;101608.47;;;20.84;60.25
60974;BME280;46846;51.528;5.076;2023-08-20T02:33:10;101603.34;;;20.80;60.25
60974;BME280;46846;51.528;5.076;2023-08-20T02:35:39;101606.13;;;20.78;60.27
60974;BME280;46846;51.528;5.076;2023-08-20T02:38:05;101601.78;;;20.75;60.44
60974;BME280;46846;51.528;5.076;2023-08-20T02:40:31;101598.22;;;20.75;60.43
60974;BME280;46846;51.528;5.076;2023-08-20T02:42:56;101604.72;;;20.72;60.45
60974;BME280;46846;51.528;5.076;2023-08-20T02:45:22;101599.38;;;20.71;60.40
60974;BME280;46846;51.528;5.076;2023-08-20T02:47:48;101590.53;;;20.69;60.27
60974;BME280;46846;51.528;5.076;2023-08-20T02:50:13;101587.16;;;20.65;60.58
60974;BME280;46846;51.528;5.076;2023-08-20T02:52:39;101592.56;;;20.65;60.37
60974;BME280;46846;51.528;5.076;2023-08-20T02:55:04;101590.91;;;20.62;60.54
60974;BME280;46846;51.528;5.076;2023-08-20T02:57:30;101592.84;;;20.60;60.38
60974;BME280;46846;51.528;5.076;2023-08-20T02:59:56;101593.84;;;20.59;60.49
60974;BME280;46846;51.528;5.076;2023-08-20T03:02:22;101589.38;;;20.58;60.60
60974;BME280;46846;51.528;5.076;2023-08-20T03:04:47;101581.47;;;20.55;60.44
60974;BME280;46846;51.528;5.076;2023-08-20T03:07:13;101582.44;;;20.54;60.38
60974;BME280;46846;51.528;5.076;2023-08-20T03:09:38;101583.41;;;20.53;60.48
60974;BME280;46846;51.528;5.076;2023-08-20T03:12:04;101583.59;;;20.50;60.47
60974;BME280;46846;51.528;5.076;2023-08-20T03:14:29;101580.03;;;20.49;60.61
60974;BME280;46846;51.528;5.076;2023-08-20T03:16:54;101583.81;;;20.47;60.51
60974;BME280;46846;51.528;5.076;2023-08-20T03:19:20;101582.16;;;20.44;60.60
60974;BME280;46846;51.528;5.076;2023-08-20T03:21:45;101593.94;;;20.43;60.53
60974;BME280;46846;51.528;5.076;2023-08-20T03:24:11;101585.94;;;20.42;60.49
60974;BME280;46846;51.528;5.076;2023-08-20T03:26:36;101598.69;;;20.40;60.51
60974;BME280;46846;51.528;5.076;2023-08-20T03:29:02;101589.81;;;20.38;60.54
60974;BME280;46846;51.528;5.076;2023-08-20T03:31:28;101594.34;;;20.37;60.52
60974;BME280;46846;51.528;5.076;2023-08-20T03:33:53;101589.16;;;20.34;60.57
60974;BME280;46846;51.528;5.076;2023-08-20T03:36:19;101590.19;;;20.31;60.60
60974;BME280;46846;51.528;5.076;2023-08-20T03:38:44;101596.56;;;20.30;60.66
60974;BME280;46846;51.528;5.076;2023-08-20T03:41:10;101601.19;;;20.28;60.52
60974;BME280;46846;51.528;5.076;2023-08-20T03:43:35;101594.94;;;20.28;60.50
60974;BME280;46846;51.528;5.076;2023-08-20T03:46:01;101599.47;;;20.27;60.54
60974;BME280;46846;51.528;5.076;2023-08-20T03:48:27;101603.22;;;20.25;60.65
60974;BME280;46846;51.528;5.076;2023-08-20T03:50:53;101603.34;;;20.23;60.59
60974;BME280;46846;51.528;5.076;2023-08-20T03:53:18;101604.31;;;20.22;60.70
60974;BME280;46846;51.528;5.076;2023-08-20T03:55:50;101608.91;;;20.20;60.56
60974;BME280;46846;51.528;5.076;2023-08-20T03:58:16;101609.03;;;20.18;60.58
60974;BME280;46846;51.528;5.076;2023-08-20T04:00:42;101613.56;;;20.18;60.59
60974;BME280;46846;51.528;5.076;2023-08-20T04:03:07;101612.78;;;20.16;60.73
60974;BME280;46846;51.528;5.076;2023-08-20T04:05:36;101609.22;;;20.15;60.49
60974;BME280;46846;51.528;5.076;2023-08-20T04:08:03;101603.03;;;20.13;60.66
60974;BME280;46846;51.528;5.076;2023-08-20T04:10:29;101604.00;;;20.12;60.67
60974;BME280;46846;51.528;5.076;2023-08-20T04:12:54;101606.81;;;20.11;60.71
60974;BME280;46846;51.528;5.076;2023-08-20T04:15:20;101612.28;;;20.09;60.69
60974;BME280;46846;51.528;5.076;2023-08-20T04:17:45;101620.53;;;20.07;60.66
60974;BME280;46846;51.528;5.076;2023-08-20T04:20:11;101615.28;;;20.04;60.69
60974;BME280;46846;51.528;5.076;2023-08-20T04:22:37;101624.28;;;20.05;60.63
60974;BME280;46846;51.528;5.076;2023-08-20T04:25:02;101630.72;;;20.02;60.61
60974;BME280;46846;51.528;5.076;2023-08-20T04:27:28;101626.28;;;20.01;60.76
60974;BME280;46846;51.528;5.076;2023-08-20T04:29:53;101622.84;;;19.99;60.84
60974;BME280;46846;51.528;5.076;2023-08-20T04:32:19;101620.31;;;19.96;60.63
60974;BME280;46846;51.528;5.076;2023-08-20T04:34:44;101620.38;;;19.94;60.88
60974;BME280;46846;51.528;5.076;2023-08-20T04:37:11;101620.38;;;19.94;60.92
60974;BME280;46846;51.528;5.076;2023-08-20T04:39:36;101628.56;;;19.93;60.83
60974;BME280;46846;51.528;5.076;2023-08-20T04:42:02;101631.38;;;19.91;60.92
60974;BME280;46846;51.528;5.076;2023-08-20T04:44:27;101627.78;;;19.91;60.81
60974;BME280;46846;51.528;5.076;2023-08-20T04:46:53;101627.91;;;19.89;60.77
60974;BME280;46846;51.528;5.076;2023-08-20T04:49:18;101639.66;;;19.88;60.66
60974;BME280;46846;51.528;5.076;2023-08-20T04:51:44;101636.09;;;19.88;60.69
60974;BME280;46846;51.528;5.076;2023-08-20T04:54:09;101644.28;;;19.86;60.73
60974;BME280;46846;51.528;5.076;2023-08-20T04:56:34;101644.38;;;19.85;60.93
60974;BME280;46846;51.528;5.076;2023-08-20T04:59:00;101642.66;;;19.84;60.78
60974;BME280;46846;51.528;5.076;2023-08-20T05:01:25;101644.47;;;19.83;60.70
60974;BME280;46846;51.528;5.076;2023-08-20T05:03:50;101646.41;;;19.81;60.74
60974;BME280;46846;51.528;5.076;2023-08-20T05:06:16;101645.53;;;19.80;60.80
60974;BME280;46846;51.528;5.076;2023-08-20T05:08:42;101650.94;;;19.80;60.83
60974;BME280;46846;51.528;5.076;2023-08-20T05:11:08;101651.88;;;19.79;60.71
60974;BME280;46846;51.528;5.076;2023-08-20T05:13:33;101650.16;;;19.78;60.79
60974;BME280;46846;51.528;5.076;2023-08-20T05:15:58;101655.56;;;19.78;60.62
60974;BME280;46846;51.528;5.076;2023-08-20T05:18:24;101652.19;;;19.75;60.87
60974;BME280;46846;51.528;5.076;2023-08-20T05:20:49;101647.75;;;19.74;60.84
60974;BME280;46846;51.528;5.076;2023-08-20T05:23:14;101647.75;;;19.74;60.81
60974;BME280;46846;51.528;5.076;2023-08-20T05:25:40;101659.50;;;19.73;60.79
60974;BME280;46846;51.528;5.076;2023-08-20T05:28:05;101655.03;;;19.72;60.95
60974;BME280;46846;51.528;5.076;2023-08-20T05:30:31;101664.09;;;19.71;60.88
60974;BME280;46846;51.528;5.076;2023-08-20T05:32:56;101657.84;;;19.70;60.86
60974;BME280;46846;51.528;5.076;2023-08-20T05:35:21;101655.16;;;19.70;60.84
60974;BME280;46846;51.528;5.076;2023-08-20T05:37:47;101657.84;;;19.70;61.01
60974;BME280;46846;51.528;5.076;2023-08-20T05:40:12;101665.97;;;19.70;60.82
60974;BME280;46846;51.528;5.076;2023-08-20T05:42:37;101660.56;;;19.70;61.09
60974;BME280;46846;51.528;5.076;2023-08-20T05:45:03;101664.22;;;19.69;60.87
60974;BME280;46846;51.528;5.076;2023-08-20T05:47:28;101664.31;;;19.67;60.86
60974;BME280;46846;51.528;5.076;2023-08-20T05:49:54;101663.34;;;19.68;60.68
60974;BME280;46846;51.528;5.076;2023-08-20T05:52:19;101656.97;;;19.70;60.92
60974;BME280;46846;51.528;5.076;2023-08-20T05:54:45;101654.28;;;19.70;61.05
60974;BME280;46846;51.528;5.076;2023-08-20T05:57:10;101656.13;;;19.69;60.94
60974;BME280;46846;51.528;5.076;2023-08-20T05:59:35;101653.41;;;19.69;60.87
60974;BME280;46846;51.528;5.076;2023-08-20T06:02:01;101656.00;;;19.71;60.75
60974;BME280;46846;51.528;5.076;2023-08-20T06:04:27;101653.22;;;19.72;60.76
60974;BME280;46846;51.528;5.076;2023-08-20T06:06:53;101653.13;;;19.74;60.77
60974;BME280;46846;51.528;5.076;2023-08-20T06:09:18;101656.69;;;19.74;60.60
60974;BME280;46846;51.528;5.076;2023-08-20T06:11:44;101661.13;;;19.75;60.72
60974;BME280;46846;51.528;5.076;2023-08-20T06:14:10;101654.78;;;19.76;60.82
60974;BME280;46846;51.528;5.076;2023-08-20T06:16:35;101656.53;;;19.77;60.63
60974;BME280;46846;51.528;5.076;2023-08-20T06:19:00;101652.84;;;19.78;60.67
60974;BME280;46846;51.528;5.076;2023-08-20T06:21:26;101654.50;;;19.81;60.79
60974;BME280;46846;51.528;5.076;2023-08-20T06:23:52;101651.69;;;19.83;60.64
60974;BME280;46846;51.528;5.076;2023-08-20T06:26:18;101660.69;;;19.83;60.84
60974;BME280;46846;51.528;5.076;2023-08-20T06:28:44;101666.00;;;19.85;60.44
60974;BME280;46846;51.528;5.076;2023-08-20T06:31:09;101666.69;;;19.88;60.55
60974;BME280;46846;51.528;5.076;2023-08-20T06:33:35;101671.00;;;19.91;60.47
60974;BME280;46846;51.528;5.076;2023-08-20T06:36:00;101670.06;;;19.92;60.53
60974;BME280;46846;51.528;5.076;2023-08-20T06:38:25;101666.38;;;19.93;60.55
60974;BME280;46846;51.528;5.076;2023-08-20T06:40:51;101661.00;;;19.93;60.51
60974;BME280;46846;51.528;5.076;2023-08-20T06:43:16;101669.00;;;19.94;60.46
60974;BME280;46846;51.528;5.076;2023-08-20T06:45:42;101663.59;;;19.94;60.58
60974;BME280;46846;51.528;5.076;2023-08-20T06:48:07;101667.88;;;19.99;60.53
60974;BME280;46846;51.528;5.076;2023-08-20T06:50:32;101675.88;;;20.00;60.35
60974;BME280;46846;51.528;5.076;2023-08-20T06:52:58;101670.28;;;20.03;60.29
60974;BME280;46846;51.528;5.076;2023-08-20T06:55:23;101674.72;;;20.04;60.32
60974;BME280;46846;51.528;5.076;2023-08-20T06:57:48;101679.84;;;20.09;60.41
60974;BME280;46846;51.528;5.076;2023-08-20T07:00:14;101674.19;;;20.14;60.62
60974;BME280;46846;51.528;5.076;2023-08-20T07:02:40;101676.47;;;20.20;59.96
60974;BME280;46846;51.528;5.076;2023-08-20T07:05:05;101679.09;;;20.21;60.54
60974;BME280;46846;51.528;5.076;2023-08-20T07:07:31;101680.72;;;20.24;60.48
60974;BME280;46846;51.528;5.076;2023-08-20T07:09:56;101684.13;;;20.28;60.78
60974;BME280;46846;51.528;5.076;2023-08-20T07:12:21;101682.84;;;20.33;60.57
60974;BME280;46846;51.528;5.076;2023-08-20T07:14:47;101683.44;;;20.39;60.67
60974;BME280;46846;51.528;5.076;2023-08-20T07:17:12;101677.94;;;20.40;60.81
60974;BME280;46846;51.528;5.076;2023-08-20T07:19:37;101684.03;;;20.44;61.09
60974;BME280;46846;51.528;5.076;2023-08-20T07:22:03;101688.25;;;20.48;60.89
60974;BME280;46846;51.528;5.076;2023-08-20T07:24:28;101689.69;;;20.54;61.06
60974;BME280;46846;51.528;5.076;2023-08-20T07:26:55;101685.94;;;20.56;61.29
60974;BME280;46846;51.528;5.076;2023-08-20T07:29:26;101686.44;;;20.63;61.34
60974;BME280;46846;51.528;5.076;2023-08-20T07:31:51;101687.97;;;20.67;61.08
60974;BME280;46846;51.528;5.076;2023-08-20T07:34:17;101683.97;;;20.73;60.95
60974;BME280;46846;51.528;5.076;2023-08-20T07:36:42;101689.00;;;20.79;60.58
60974;BME280;46846;51.528;5.076;2023-08-20T07:39:08;101684.22;;;20.84;61.25
60974;BME280;46846;51.528;5.076;2023-08-20T07:41:34;101692.03;;;20.89;61.12
60974;BME280;46846;51.528;5.076;2023-08-20T07:43:59;101690.75;;;20.95;61.38
60974;BME280;46846;51.528;5.076;2023-08-20T07:46:24;101692.19;;;21.00;60.73
60974;BME280;46846;51.528;5.076;2023-08-20T07:48:50;101685.41;;;21.08;60.77
60974;BME280;46846;51.528;5.076;2023-08-20T07:51:15;101689.56;;;21.13;60.91
60974;BME280;46846;51.528;5.076;2023-08-20T07:53:41;101692.72;;;21.20;61.25
60974;BME280;46846;51.528;5.076;2023-08-20T07:56:06;101696.75;;;21.27;58.58
60974;BME280;46846;51.528;5.076;2023-08-20T07:58:32;101692.66;;;21.35;60.93
60974;BME280;46846;51.528;5.076;2023-08-20T08:00:57;101698.56;;;21.41;60.62
60974;BME280;46846;51.528;5.076;2023-08-20T08:03:25;101699.88;;;21.49;61.06
60974;BME280;46846;51.528;5.076;2023-08-20T08:05:51;101695.88;;;21.54;60.20
60974;BME280;46846;51.528;5.076;2023-08-20T08:08:18;101705.31;;;21.62;60.88
60974;BME280;46846;51.528;5.076;2023-08-20T08:10:45;101708.31;;;21.71;59.44
60974;BME280;46846;51.528;5.076;2023-08-20T08:13:15;101707.78;;;21.79;60.47
60974;BME280;46846;51.528;5.076;2023-08-20T08:15:41;101702.81;;;21.86;59.61
60974;BME280;46846;51.528;5.076;2023-08-20T08:18:07;101699.66;;;21.92;59.01
60974;BME280;46846;51.528;5.076;2023-08-20T08:20:33;101700.00;;;22.01;59.93
60974;BME280;46846;51.528;5.076;2023-08-20T08:22:58;101703.06;;;22.09;60.13
60974;BME280;46846;51.528;5.076;2023-08-20T08:25:24;101705.22;;;22.17;59.53
60974;BME280;46846;51.528;5.076;2023-08-20T08:27:50;101712.81;;;22.24;59.05
60974;BME280;46846;51.528;5.076;2023-08-20T08:30:15;101710.44;;;22.33;59.94
60974;BME280;46846;51.528;5.076;2023-08-20T08:32:41;101710.75;;;22.41;59.91
60974;BME280;46846;51.528;5.076;2023-08-20T08:35:07;101715.59;;;22.49;59.29
60974;BME280;46846;51.528;5.076;2023-08-20T08:37:33;101710.56;;;22.57;58.64
60974;BME280;46846;51.528;5.076;2023-08-20T08:39:59;101713.59;;;22.65;57.79
60974;BME280;46846;51.528;5.076;2023-08-20T08:42:25;101710.31;;;22.73;59.70
60974;BME280;46846;51.528;5.076;2023-08-20T08:44:50;101712.47;;;22.81;59.62
60974;BME280;46846;51.528;5.076;2023-08-20T08:47:18;101718.19;;;22.89;58.85
60974;BME280;46846;51.528;5.076;2023-08-20T08:49:44;101718.59;;;22.96;57.98
60974;BME280;46846;51.528;5.076;2023-08-20T08:52:12;101718.69;;;23.07;59.17
60974;BME280;46846;51.528;5.076;2023-08-20T08:54:38;101714.53;;;23.15;58.56
60974;BME280;46846;51.528;5.076;2023-08-20T08:57:04;101719.38;;;23.22;56.88
60974;BME280;46846;51.528;5.076;2023-08-20T08:59:30;101715.25;;;23.30;57.87
60974;BME280;46846;51.528;5.076;2023-08-20T09:01:55;101717.41;;;23.38;56.39
60974;BME280;46846;51.528;5.076;2023-08-20T09:04:22;101716.97;;;23.44;58.40
60974;BME280;46846;51.528;5.076;2023-08-20T09:06:52;101721.91;;;23.50;58.18
60974;BME280;46846;51.528;5.076;2023-08-20T09:09:20;101719.50;;;23.58;58.55
60974;BME280;46846;51.528;5.076;2023-08-20T09:11:47;101717.06;;;23.67;58.13
60974;BME280;46846;51.528;5.076;2023-08-20T09:14:29;101715.72;;;23.72;58.69
60974;BME280;46846;51.528;5.076;2023-08-20T09:19:21;101730.84;;;23.88;58.53
60974;BME280;46846;51.528;5.076;2023-08-20T09:21:46;101724.03;;;23.94;58.30
60974;BME280;46846;51.528;5.076;2023-08-20T09:24:13;101725.31;;;24.01;58.21
60974;BME280;46846;51.528;5.076;2023-08-20T09:26:39;101736.72;;;24.06;55.04
60974;BME280;46846;51.528;5.076;2023-08-20T09:29:04;101733.53;;;24.12;58.28
60974;BME280;46846;51.528;5.076;2023-08-20T09:31:37;101731.06;;;24.21;58.57
60974;BME280;46846;51.528;5.076;2023-08-20T09:34:04;101730.59;;;24.27;58.20
60974;BME280;46846;51.528;5.076;2023-08-20T09:36:31;101724.91;;;24.30;56.99
60974;BME280;46846;51.528;5.076;2023-08-20T09:38:56;101730.75;;;24.37;58.76
60974;BME280;46846;51.528;5.076;2023-08-20T09:41:23;101735.66;;;24.43;58.82
60974;BME280;46846;51.528;5.076;2023-08-20T09:43:58;101736.06;;;24.50;58.54
60974;BME280;46846;51.528;5.076;2023-08-20T09:46:27;101727.63;;;24.53;58.74
60974;BME280;46846;51.528;5.076;2023-08-20T09:48:56;101729.00;;;24.58;57.94
60974;BME280;46846;51.528;5.076;2023-08-20T09:51:27;101726.78;;;24.64;57.38
60974;BME280;46846;51.528;5.076;2023-08-20T09:56:28;101721.84;;;24.69;57.92
60974;BME280;46846;51.528;5.076;2023-08-20T09:59:00;101730.00;;;24.80;57.57
60974;BME280;46846;51.528;5.076;2023-08-20T10:01:27;101730.41;;;24.87;57.87
60974;BME280;46846;51.528;5.076;2023-08-20T10:03:53;101734.47;;;24.93;57.67
60974;BME280;46846;51.528;5.076;2023-08-20T10:06:19;101730.63;;;24.95;58.37
60974;BME280;46846;51.528;5.076;2023-08-20T10:08:46;101729.25;;;25.01;57.33
60974;BME280;46846;51.528;5.076;2023-08-20T10:11:12;101729.63;;;25.08;55.64
60974;BME280;46846;51.528;5.076;2023-08-20T10:13:38;101733.69;;;25.14;57.02
60974;BME280;46846;51.528;5.076;2023-08-20T10:16:04;101735.16;;;25.18;54.57
60974;BME280;46846;51.528;5.076;2023-08-20T10:18:29;101728.34;;;25.23;57.91
60974;BME280;46846;51.528;5.076;2023-08-20T10:20:57;101727.81;;;25.30;57.00
60974;BME280;46846;51.528;5.076;2023-08-20T10:23:24;101723.84;;;25.34;58.00
60974;BME280;46846;51.528;5.076;2023-08-20T10:25:52;101725.34;;;25.38;58.29
60974;BME280;46846;51.528;5.076;2023-08-20T10:31:06;101730.84;;;25.48;58.32
60974;BME280;46846;51.528;5.076;2023-08-20T10:33:48;101729.66;;;25.52;56.70
60974;BME280;46846;51.528;5.076;2023-08-20T10:36:19;101721.47;;;25.52;52.90
60974;BME280;46846;51.528;5.076;2023-08-20T10:38:48;101724.41;;;25.60;55.66
60974;BME280;46846;51.528;5.076;2023-08-20T10:41:15;101727.63;;;25.65;56.26
60974;BME280;46846;51.528;5.076;2023-08-20T10:43:48;101721.03;;;25.68;57.49
60974;BME280;46846;51.528;5.076;2023-08-20T10:48:46;101722.09;;;25.77;57.66
60974;BME280;46846;51.528;5.076;2023-08-20T10:54:02;101725.69;;;25.77;56.18
60974;BME280;46846;51.528;5.076;2023-08-20T10:56:44;101727.75;;;25.85;56.96
60974;BME280;46846;51.528;5.076;2023-08-20T11:01:35;101728.34;;;25.89;57.17
60974;BME280;46846;51.528;5.076;2023-08-20T11:04:02;101724.50;;;25.91;56.70
60974;BME280;46846;51.528;5.076;2023-08-20T11:06:31;101721.38;;;25.96;54.95
60974;BME280;46846;51.528;5.076;2023-08-20T11:08:57;101724.69;;;26.00;54.55
60974;BME280;46846;51.528;5.076;2023-08-20T11:11:23;101719.84;;;26.03;56.64
60974;BME280;46846;51.528;5.076;2023-08-20T11:13:49;101714.97;;;26.07;54.89
60974;BME280;46846;51.528;5.076;2023-08-20T11:16:14;101713.97;;;26.08;55.09
60974;BME280;46846;51.528;5.076;2023-08-20T11:18:40;101721.03;;;26.11;56.62
60974;BME280;46846;51.528;5.076;2023-08-20T11:21:07;101717.06;;;26.15;54.67
60974;BME280;46846;51.528;5.076;2023-08-20T11:23:33;101721.50;;;26.16;54.03
60974;BME280;46846;51.528;5.076;2023-08-20T11:25:59;101716.66;;;26.19;55.10
60974;BME280;46846;51.528;5.076;2023-08-20T11:28:26;101713.66;;;26.23;55.57
60974;BME280;46846;51.528;5.076;2023-08-20T11:30:52;101706.63;;;26.20;50.43
60974;BME280;46846;51.528;5.076;2023-08-20T11:33:18;101710.53;;;26.27;54.79
60974;BME280;46846;51.528;5.076;2023-08-20T11:35:44;101711.13;;;26.31;54.69
60974;BME280;46846;51.528;5.076;2023-08-20T11:38:10;101709.16;;;26.33;56.44
60974;BME280;46846;51.528;5.076;2023-08-20T11:40:36;101694.94;;;26.18;46.14
60974;BME280;46846;51.528;5.076;2023-08-20T11:43:02;101694.38;;;26.36;55.36
60974;BME280;46846;51.528;5.076;2023-08-20T11:45:27;101693.09;;;26.40;55.87
60974;BME280;46846;51.528;5.076;2023-08-20T11:47:56;101693.97;;;26.40;57.07
60974;BME280;46846;51.528;5.076;2023-08-20T11:50:23;101694.81;;;26.41;54.84
60974;BME280;46846;51.528;5.076;2023-08-20T11:52:48;101684.47;;;26.44;56.77
60974;BME280;46846;51.528;5.076;2023-08-20T11:55:14;101676.16;;;26.46;56.34
60974;BME280;46846;51.528;5.076;2023-08-20T11:57:39;101676.47;;;26.43;45.32
60974;BME280;46846;51.528;5.076;2023-08-20T12:00:05;101672.56;;;26.45;53.47
60974;BME280;46846;51.528;5.076;2023-08-20T12:02:35;101670.13;;;26.42;51.22
60974;BME280;46846;51.528;5.076;2023-08-20T12:05:00;101672.19;;;26.50;56.17
60974;BME280;46846;51.528;5.076;2023-08-20T12:07:26;101675.63;;;26.52;56.53
60974;BME280;46846;51.528;5.076;2023-08-20T12:09:55;101667.56;;;26.51;56.57
60974;BME280;46846;51.528;5.076;2023-08-20T12:12:21;101673.91;;;26.51;55.95
60974;BME280;46846;51.528;5.076;2023-08-20T12:14:47;101673.59;;;26.54;56.80
60974;BME280;46846;51.528;5.076;2023-08-20T12:17:17;101676.09;;;26.57;56.11
60974;BME280;46846;51.528;5.076;2023-08-20T12:19:42;101673.19;;;26.59;53.62
60974;BME280;46846;51.528;5.076;2023-08-20T12:22:08;101674.78;;;26.61;55.85
60974;BME280;46846;51.528;5.076;2023-08-20T12:24:34;101676.25;;;26.66;56.35
60974;BME280;46846;51.528;5.076;2023-08-20T12:26:59;101671.38;;;26.69;54.43
60974;BME280;46846;51.528;5.076;2023-08-20T12:29:24;101675.66;;;26.72;54.30
60974;BME280;46846;51.528;5.076;2023-08-20T12:31:50;101665.63;;;26.72;55.78
60974;BME280;46846;51.528;5.076;2023-08-20T12:34:15;101667.34;;;26.73;55.97
60974;BME280;46846;51.528;5.076;2023-08-20T12:36:41;101679.84;;;26.76;55.38
60974;BME280;46846;51.528;5.076;2023-08-20T12:39:06;101672.25;;;26.80;52.37
60974;BME280;46846;51.528;5.076;2023-08-20T12:41:32;101673.13;;;26.80;53.88
60974;BME280;46846;51.528;5.076;2023-08-20T12:43:57;101676.28;;;26.85;51.65
60974;BME280;46846;51.528;5.076;2023-08-20T12:46:23;101669.59;;;26.89;54.87
60974;BME280;46846;51.528;5.076;2023-08-20T12:48:49;101671.00;;;26.94;54.62
60974;BME280;46846;51.528;5.076;2023-08-20T12:51:15;101673.47;;;26.97;56.34
60974;BME280;46846;51.528;5.076;2023-08-20T12:53:42;101670.59;;;26.98;56.31
60974;BME280;46846;51.528;5.076;2023-08-20T12:56:08;101677.38;;;27.04;53.97
60974;BME280;46846;51.528;5.076;2023-08-20T12:58:33;101674.34;;;27.07;56.62
60974;BME280;46846;51.528;5.076;2023-08-20T13:00:58;101664.88;;;27.11;54.08
60974;BME280;46846;51.528;5.076;2023-08-20T13:03:24;101666.03;;;27.19;56.45
60974;BME280;46846;51.528;5.076;2023-08-20T13:05:50;101665.75;;;27.22;55.97
60974;BME280;46846;51.528;5.076;2023-08-20T13:08:16;101674.66;;;27.24;55.72
60974;BME280;46846;51.528;5.076;2023-08-20T13:10:42;101662.31;;;27.29;53.93
60974;BME280;46846;51.528;5.076;2023-08-20T13:13:13;101672.22;;;27.40;53.68